Home > Products > Valid Products > TAF

000
FTUS44 KHGX 160619 AAA
TAFGLS
TAF AMD
KGLS 160619Z 1606/1706 09008KT P6SM VCSH SCT020 BKN250
      TEMPO 1606/1607 -SHRA
     FM160800 10007KT P6SM VCSH SCT020 BKN250
     FM161300 12010KT P6SM VCTS BKN030CB BKN250
     FM161800 13010KT P6SM BKN035 BKN250
     FM170000 13007KT P6SM SCT030 BKN250=



000
FTUS44 KHGX 160619 AAA
TAFGLS
TAF AMD
KGLS 160619Z 1606/1706 09008KT P6SM VCSH SCT020 BKN250
      TEMPO 1606/1607 -SHRA
     FM160800 10007KT P6SM VCSH SCT020 BKN250
     FM161300 12010KT P6SM VCTS BKN030CB BKN250
     FM161800 13010KT P6SM BKN035 BKN250
     FM170000 13007KT P6SM SCT030 BKN250=



000
FTUS44 KHGX 160526
TAFUTS
TAF
KUTS 160526Z 1606/1706 00000KT P6SM OVC250
     FM161500 09004KT P6SM BKN035 BKN250
     FM162100 09007KT P6SM VCTS BKN040CB BKN250
     FM170100 VRB03KT P6SM BKN035 BKN250=



000
FTUS44 KHGX 160526
TAFCXO
TAF
KCXO 160526Z 1606/1706 00000KT P6SM SCT040 OVC250
      TEMPO 1609/1612 5SM BR
     FM161500 09004KT P6SM BKN035 BKN250
     FM162000 09007KT P6SM VCTS BKN040CB BKN250
     FM170000 VRB03KT P6SM BKN035 BKN250=



000
FTUS44 KHGX 160526
TAFUTS
TAF
KUTS 160526Z 1606/1706 00000KT P6SM OVC250
     FM161500 09004KT P6SM BKN035 BKN250
     FM162100 09007KT P6SM VCTS BKN040CB BKN250
     FM170100 VRB03KT P6SM BKN035 BKN250=



000
FTUS44 KHGX 160526
TAFLBX
TAF
KLBX 160526Z 1606/1706 04005KT P6SM SCT030 BKN250
     FM161200 09007KT P6SM VCSH SCT025 BKN250
     FM161600 11010KT P6SM VCTS BKN035CB BKN250
     FM162200 12006KT P6SM BKN050 BKN250=



000
FTUS44 KHGX 160526
TAFLBX
TAF
KLBX 160526Z 1606/1706 04005KT P6SM SCT030 BKN250
     FM161200 09007KT P6SM VCSH SCT025 BKN250
     FM161600 11010KT P6SM VCTS BKN035CB BKN250
     FM162200 12006KT P6SM BKN050 BKN250=



000
FTUS44 KHGX 160526
TAFHOU
TAF
KHOU 160526Z 1606/1706 09003KT P6SM FEW080 BKN250
     FM161300 09007KT P6SM VCSH SCT025 BKN250
     FM161700 11010KT P6SM VCTS BKN035CB BKN250
     FM162300 12006KT P6SM BKN050 BKN250=



000
FTUS44 KHGX 160526
TAFIAH
TAF
KIAH 160526Z 1606/1712 11005KT P6SM FEW040 BKN250
     FM161500 10007KT P6SM VCSH BKN035 BKN250
     FM161800 12010KT P6SM VCTS BKN040CB BKN250
     FM162300 13006KT P6SM BKN050 BKN250=



000
FTUS44 KHGX 160526
TAFCXO
TAF
KCXO 160526Z 1606/1706 00000KT P6SM SCT040 OVC250
      TEMPO 1609/1612 5SM BR
     FM161500 09004KT P6SM BKN035 BKN250
     FM162000 09007KT P6SM VCTS BKN040CB BKN250
     FM170000 VRB03KT P6SM BKN035 BKN250=



000
FTUS44 KHGX 160526
TAFIAH
TAF
KIAH 160526Z 1606/1712 11005KT P6SM FEW040 BKN250
     FM161500 10007KT P6SM VCSH BKN035 BKN250
     FM161800 12010KT P6SM VCTS BKN040CB BKN250
     FM162300 13006KT P6SM BKN050 BKN250=



000
FTUS44 KHGX 160526
TAFHOU
TAF
KHOU 160526Z 1606/1706 09003KT P6SM FEW080 BKN250
     FM161300 09007KT P6SM VCSH SCT025 BKN250
     FM161700 11010KT P6SM VCTS BKN035CB BKN250
     FM162300 12006KT P6SM BKN050 BKN250=



000
FTUS44 KHGX 160526
TAFCLL
TAF
KCLL 160526Z 1606/1706 06007KT P6SM OVC250
     FM161500 09006KT P6SM BKN035 BKN250
     FM162100 09008KT P6SM VCTS BKN040CB BKN250
     FM170100 11004KT P6SM BKN035 BKN250=



000
FTUS44 KHGX 160526
TAFSGR
TAF
KSGR 160526Z 1606/1706 12004KT P6SM OVC250
     FM161400 09007KT P6SM VCSH SCT025 BKN250
     FM161700 11010KT P6SM VCTS BKN035CB BKN250
     FM162300 12006KT P6SM BKN050 BKN250=



000
FTUS44 KHGX 160526
TAFSGR
TAF
KSGR 160526Z 1606/1706 12004KT P6SM OVC250
     FM161400 09007KT P6SM VCSH SCT025 BKN250
     FM161700 11010KT P6SM VCTS BKN035CB BKN250
     FM162300 12006KT P6SM BKN050 BKN250=



000
FTUS44 KHGX 160526
TAFGLS
TAF
KGLS 160526Z 1606/1706 09008KT P6SM SCT020 BKN250
     FM160800 10007KT P6SM VCSH SCT020 BKN250
     FM161300 12010KT P6SM VCTS BKN030CB BKN250
     FM161800 13010KT P6SM BKN035 BKN250
     FM170000 13007KT P6SM SCT030 BKN250=



000
FTUS44 KHGX 160526
TAFCLL
TAF
KCLL 160526Z 1606/1706 06007KT P6SM OVC250
     FM161500 09006KT P6SM BKN035 BKN250
     FM162100 09008KT P6SM VCTS BKN040CB BKN250
     FM170100 11004KT P6SM BKN035 BKN250=



000
FTUS44 KHGX 160526
TAFGLS
TAF
KGLS 160526Z 1606/1706 09008KT P6SM SCT020 BKN250
     FM160800 10007KT P6SM VCSH SCT020 BKN250
     FM161300 12010KT P6SM VCTS BKN030CB BKN250
     FM161800 13010KT P6SM BKN035 BKN250
     FM170000 13007KT P6SM SCT030 BKN250=



000
FTUS44 KHGX 160305 AAA
TAFHOU
TAF AMD
KHOU 160305Z 1603/1624 VRB03KT P6SM FEW080 BKN250
     FM161300 09007KT P6SM VCSH SCT025 BKN250
     FM161700 11010KT P6SM VCTS BKN035CB BKN250
     FM162300 12006KT P6SM BKN050 BKN250=



000
FTUS44 KHGX 160305 AAA
TAFHOU
TAF AMD
KHOU 160305Z 1603/1624 VRB03KT P6SM FEW080 BKN250
     FM161300 09007KT P6SM VCSH SCT025 BKN250
     FM161700 11010KT P6SM VCTS BKN035CB BKN250
     FM162300 12006KT P6SM BKN050 BKN250=



000
FTUS44 KHGX 160304 AAA
TAFIAH
TAF AMD
KIAH 160304Z 1603/1706 VRB03KT P6SM SCT040 BKN250
     FM161500 10007KT P6SM VCSH BKN035 BKN250
     FM161800 12010KT P6SM VCTS BKN040CB BKN250
     FM162300 13006KT P6SM BKN050 BKN250=



000
FTUS44 KHGX 152324
TAFLBX
TAF
KLBX 152324Z 1600/1624 10008KT P6SM SCT030 BKN250
     FM160200 VRB03KT P6SM SCT020 SCT250
     FM161200 09007KT P6SM VCSH SCT025 BKN250
     FM161600 11010KT P6SM VCTS BKN035CB BKN250
     FM162200 12006KT P6SM BKN050 BKN250=



000
FTUS44 KHGX 152324
TAFUTS
TAF
KUTS 152324Z 1600/1624 VRB04KT P6SM SCT040
     FM161500 09004KT P6SM BKN035 BKN250
     FM162100 09007KT P6SM VCTS BKN040CB BKN250=



000
FTUS44 KHGX 152324
TAFHOU
TAF
KHOU 152324Z 1600/1624 10008KT P6SM SCT050 BKN250
     FM160200 VRB03KT P6SM SCT020 SCT250
     FM161300 09007KT P6SM VCSH SCT025 BKN250
     FM161700 11010KT P6SM VCTS BKN035CB BKN250
     FM162300 12006KT P6SM BKN050 BKN250=



000
FTUS44 KHGX 152324
TAFSGR
TAF
KSGR 152324Z 1600/1624 10008KT P6SM SCT050 BKN250
     FM160200 VRB03KT P6SM SCT020 SCT250
     FM161400 09007KT P6SM VCSH SCT025 BKN250
     FM161700 11010KT P6SM VCTS BKN035CB BKN250
     FM162300 12006KT P6SM BKN050 BKN250=



000
FTUS44 KHGX 152324
TAFCXO
TAF
KCXO 152324Z 1600/1624 VRB04KT P6SM SCT040
      TEMPO 1609/1612 5SM BR
     FM161500 09004KT P6SM BKN035 BKN250
     FM162000 09007KT P6SM VCTS BKN040CB BKN250=



000
FTUS44 KHGX 152324
TAFCLL
TAF
KCLL 152324Z 1600/1624 09005KT P6SM SCT040
     FM160300 VRB03KT P6SM BKN250
     FM161500 09006KT P6SM BKN035 BKN250
     FM162100 09008KT P6SM VCTS BKN040CB BKN250=



000
FTUS44 KHGX 152324
TAFGLS
TAF
KGLS 152324Z 1600/1624 08012KT P6SM SCT020
     FM160400 09007KT P6SM BKN250
     FM161000 10007KT P6SM VCSH SCT020 BKN250
     FM161300 12010KT P6SM VCTS BKN030CB BKN250
     FM161800 13010KT P6SM BKN035 BKN250=



000
FTUS44 KHGX 152324
TAFIAH
TAF
KIAH 152324Z 1600/1706 10008KT P6SM SCT050 BKN250
     FM160200 VRB03KT P6SM SCT020 SCT250
     FM161500 10007KT P6SM VCSH BKN035 BKN250
     FM161800 12010KT P6SM VCTS BKN040CB BKN250
     FM162300 13006KT P6SM BKN050 BKN250=



000
FTUS44 KHGX 152324
TAFSGR
TAF
KSGR 152324Z 1600/1624 10008KT P6SM SCT050 BKN250
     FM160200 VRB03KT P6SM SCT020 SCT250
     FM161400 09007KT P6SM VCSH SCT025 BKN250
     FM161700 11010KT P6SM VCTS BKN035CB BKN250
     FM162300 12006KT P6SM BKN050 BKN250=



000
FTUS44 KHGX 152324
TAFCLL
TAF
KCLL 152324Z 1600/1624 09005KT P6SM SCT040
     FM160300 VRB03KT P6SM BKN250
     FM161500 09006KT P6SM BKN035 BKN250
     FM162100 09008KT P6SM VCTS BKN040CB BKN250=



000
FTUS44 KHGX 152324
TAFCXO
TAF
KCXO 152324Z 1600/1624 VRB04KT P6SM SCT040
      TEMPO 1609/1612 5SM BR
     FM161500 09004KT P6SM BKN035 BKN250
     FM162000 09007KT P6SM VCTS BKN040CB BKN250=



000
FTUS44 KHGX 152324
TAFGLS
TAF
KGLS 152324Z 1600/1624 08012KT P6SM SCT020
     FM160400 09007KT P6SM BKN250
     FM161000 10007KT P6SM VCSH SCT020 BKN250
     FM161300 12010KT P6SM VCTS BKN030CB BKN250
     FM161800 13010KT P6SM BKN035 BKN250=



000
FTUS44 KHGX 152324
TAFLBX
TAF
KLBX 152324Z 1600/1624 10008KT P6SM SCT030 BKN250
     FM160200 VRB03KT P6SM SCT020 SCT250
     FM161200 09007KT P6SM VCSH SCT025 BKN250
     FM161600 11010KT P6SM VCTS BKN035CB BKN250
     FM162200 12006KT P6SM BKN050 BKN250=



000
FTUS44 KHGX 152324
TAFIAH
TAF
KIAH 152324Z 1600/1706 10008KT P6SM SCT050 BKN250
     FM160200 VRB03KT P6SM SCT020 SCT250
     FM161500 10007KT P6SM VCSH BKN035 BKN250
     FM161800 12010KT P6SM VCTS BKN040CB BKN250
     FM162300 13006KT P6SM BKN050 BKN250=



000
FTUS44 KHGX 152324
TAFUTS
TAF
KUTS 152324Z 1600/1624 VRB04KT P6SM SCT040
     FM161500 09004KT P6SM BKN035 BKN250
     FM162100 09007KT P6SM VCTS BKN040CB BKN250=



000
FTUS44 KHGX 152324
TAFHOU
TAF
KHOU 152324Z 1600/1624 10008KT P6SM SCT050 BKN250
     FM160200 VRB03KT P6SM SCT020 SCT250
     FM161300 09007KT P6SM VCSH SCT025 BKN250
     FM161700 11010KT P6SM VCTS BKN035CB BKN250
     FM162300 12006KT P6SM BKN050 BKN250=



000
FTUS44 KHGX 152102 AAA
TAFHOU
TAF AMD
KHOU 152102Z 1521/1618 09007KT P6SM SCT040 SCT250
     FM160100 12004KT P6SM SCT250
     FM161500 13007KT P6SM VCSH BKN035 BKN250=



000
FTUS44 KHGX 152102 AAA
TAFHOU
TAF AMD
KHOU 152102Z 1521/1618 09007KT P6SM SCT040 SCT250
     FM160100 12004KT P6SM SCT250
     FM161500 13007KT P6SM VCSH BKN035 BKN250=



000
FTUS44 KHGX 152102 AAA
TAFIAH
TAF AMD
KIAH 152102Z 1521/1624 09009KT P6SM SCT040 SCT250
     FM160100 11003KT P6SM SCT250
     FM161500 13007KT P6SM VCSH BKN035 BKN250
     FM162000 13008KT P6SM VCTS BKN040CB=



000
FTUS44 KHGX 152102 AAA
TAFIAH
TAF AMD
KIAH 152102Z 1521/1624 09009KT P6SM SCT040 SCT250
     FM160100 11003KT P6SM SCT250
     FM161500 13007KT P6SM VCSH BKN035 BKN250
     FM162000 13008KT P6SM VCTS BKN040CB=



000
FTUS44 KHGX 151720
TAFCLL
TAF
KCLL 151720Z 1518/1618 09007KT P6SM SCT040 SCT250
     FM160300 00000KT P6SM BKN250
     FM161500 09006KT P6SM BKN035 BKN250=



000
FTUS44 KHGX 151720
TAFHOU
TAF
KHOU 151720Z 1518/1618 09007KT P6SM SCT040 SCT250
     FM160100 12004KT P6SM SCT250
     FM161500 13007KT P6SM VCSH BKN035 BKN250=



000
FTUS44 KHGX 151720
TAFSGR
TAF
KSGR 151720Z 1518/1618 09007KT P6SM SCT040
     FM160100 12004KT P6SM SCT250
     FM161500 13007KT P6SM VCSH BKN035 BKN250=



000
FTUS44 KHGX 151720
TAFLBX
TAF
KLBX 151720Z 1518/1618 09007KT P6SM SCT025 SCT040 SCT250
     FM160100 12004KT P6SM SCT250
     FM161500 13007KT P6SM VCSH BKN035 BKN250=



000
FTUS44 KHGX 151720
TAFLBX
TAF
KLBX 151720Z 1518/1618 09007KT P6SM SCT025 SCT040 SCT250
     FM160100 12004KT P6SM SCT250
     FM161500 13007KT P6SM VCSH BKN035 BKN250=



000
FTUS44 KHGX 151720
TAFSGR
TAF
KSGR 151720Z 1518/1618 09007KT P6SM SCT040
     FM160100 12004KT P6SM SCT250
     FM161500 13007KT P6SM VCSH BKN035 BKN250=



000
FTUS44 KHGX 151720
TAFUTS
TAF
KUTS 151720Z 1518/1618 09004KT P6SM SCT040 SCT250
     FM160300 00000KT P6SM BKN250
     FM161500 09003KT P6SM BKN035 BKN250=



000
FTUS44 KHGX 151720
TAFCLL
TAF
KCLL 151720Z 1518/1618 09007KT P6SM SCT040 SCT250
     FM160300 00000KT P6SM BKN250
     FM161500 09006KT P6SM BKN035 BKN250=



000
FTUS44 KHGX 151720
TAFUTS
TAF
KUTS 151720Z 1518/1618 09004KT P6SM SCT040 SCT250
     FM160300 00000KT P6SM BKN250
     FM161500 09003KT P6SM BKN035 BKN250=



000
FTUS44 KHGX 151720
TAFCXO
TAF
KCXO 151720Z 1518/1618 12003KT P6SM SCT025 SCT040 SCT250
     FM160100 12002KT P6SM SCT250
     FM160500 00000KT 5SM BR BKN250
     FM161500 09003KT P6SM BKN035 BKN250=



000
FTUS44 KHGX 151720
TAFHOU
TAF
KHOU 151720Z 1518/1618 09007KT P6SM SCT040 SCT250
     FM160100 12004KT P6SM SCT250
     FM161500 13007KT P6SM VCSH BKN035 BKN250=



000
FTUS44 KHGX 151720
TAFIAH
TAF
KIAH 151720Z 1518/1624 09007KT P6SM SCT040 SCT250
     FM160100 11003KT P6SM SCT250
     FM161500 13007KT P6SM VCSH BKN035 BKN250
     FM162000 13008KT P6SM VCTS BKN040CB=



000
FTUS44 KHGX 151720
TAFCXO
TAF
KCXO 151720Z 1518/1618 12003KT P6SM SCT025 SCT040 SCT250
     FM160100 12002KT P6SM SCT250
     FM160500 00000KT 5SM BR BKN250
     FM161500 09003KT P6SM BKN035 BKN250=



000
FTUS44 KHGX 151720
TAFIAH
TAF
KIAH 151720Z 1518/1624 09007KT P6SM SCT040 SCT250
     FM160100 11003KT P6SM SCT250
     FM161500 13007KT P6SM VCSH BKN035 BKN250
     FM162000 13008KT P6SM VCTS BKN040CB=



000
FTUS44 KHGX 151720
TAFGLS
TAF
KGLS 151720Z 1518/1618 09009KT P6SM SCT025 SCT250
     FM160400 11006KT P6SM BKN250
     FM161500 13007KT P6SM VCTS BKN025CB BKN250=



000
FTUS44 KHGX 151506 AAB
TAFHOU
TAF AMD
KHOU 151506Z 1515/1612 09007KT P6SM SCT040 SCT250
     FM160100 12004KT P6SM SCT250=



000
FTUS44 KHGX 151506 AAB
TAFHOU
TAF AMD
KHOU 151506Z 1515/1612 09007KT P6SM SCT040 SCT250
     FM160100 12004KT P6SM SCT250=



000
FTUS44 KHGX 151506 AAC
TAFIAH
TAF AMD
KIAH 151506Z 1515/1618 09008KT P6SM SCT040
     FM160100 12004KT P6SM SCT250
     FM161500 13005KT P6SM BKN100=



000
FTUS44 KHGX 151506 AAC
TAFIAH
TAF AMD
KIAH 151506Z 1515/1618 09008KT P6SM SCT040
     FM160100 12004KT P6SM SCT250
     FM161500 13005KT P6SM BKN100=



000
FTUS44 KHGX 151427 AAB
TAFLBX
TAF AMD
KLBX 151427Z 1514/1612 09007KT P6SM SCT040 SCT250
     FM160100 12004KT P6SM SCT250
     FM160600 VRB03KT 6SM BR BKN250=



000
FTUS44 KHGX 151427 AAB
TAFLBX
TAF AMD
KLBX 151427Z 1514/1612 09007KT P6SM SCT040 SCT250
     FM160100 12004KT P6SM SCT250
     FM160600 VRB03KT 6SM BR BKN250=



000
FTUS44 KHGX 151426 AAB
TAFIAH
TAF AMD
KIAH 151426Z 1514/1618 09008KT P6SM SCT040
     FM160100 12004KT P6SM SCT250
     FM161500 13005KT P6SM BKN100=



000
FTUS44 KHGX 151426 AAB
TAFIAH
TAF AMD
KIAH 151426Z 1514/1618 09008KT P6SM SCT040
     FM160100 12004KT P6SM SCT250
     FM161500 13005KT P6SM BKN100=



000
FTUS44 KHGX 151318 AAA
TAFHOU
TAF AMD
KHOU 151318Z 1513/1612 03005KT P6SM SCT025 SCT250
      TEMPO 1513/1515 BKN025
     FM151500 09007KT P6SM SCT040 SCT250
     FM160100 12004KT P6SM SCT250=



000
FTUS44 KHGX 151318 AAA
TAFHOU
TAF AMD
KHOU 151318Z 1513/1612 03005KT P6SM SCT025 SCT250
      TEMPO 1513/1515 BKN025
     FM151500 09007KT P6SM SCT040 SCT250
     FM160100 12004KT P6SM SCT250=



000
FTUS44 KHGX 151249 AAA
TAFLBX
TAF AMD
KLBX 151249Z 1513/1612 02008KT P6SM OVC029
      TEMPO 1513/1514 5SM BR
     FM151500 09007KT P6SM SCT040 SCT250
     FM160100 12004KT P6SM SCT250
     FM160600 VRB03KT 6SM BR BKN250=



000
FTUS44 KHGX 151249 AAA
TAFLBX
TAF AMD
KLBX 151249Z 1513/1612 02008KT P6SM OVC029
      TEMPO 1513/1514 5SM BR
     FM151500 09007KT P6SM SCT040 SCT250
     FM160100 12004KT P6SM SCT250
     FM160600 VRB03KT 6SM BR BKN250=



000
FTUS44 KHGX 151248 AAA
TAFIAH
TAF AMD
KIAH 151248Z 1513/1618 03003KT 5SM BR BKN028
     FM151500 09008KT P6SM SCT040
     FM160100 12004KT P6SM SCT250
     FM161500 13005KT P6SM BKN100=



000
FTUS44 KHGX 151248 AAA
TAFIAH
TAF AMD
KIAH 151248Z 1513/1618 03003KT 5SM BR BKN028
     FM151500 09008KT P6SM SCT040
     FM160100 12004KT P6SM SCT250
     FM161500 13005KT P6SM BKN100=



000
FTUS44 KHGX 151248 AAA
TAFSGR
TAF AMD
KSGR 151248Z 1513/1612 36005KT 5SM BR OVC030
     FM151500 09007KT P6SM SCT040
     FM160100 12004KT P6SM SCT250=



000
FTUS44 KHGX 151248 AAA
TAFSGR
TAF AMD
KSGR 151248Z 1513/1612 36005KT 5SM BR OVC030
     FM151500 09007KT P6SM SCT040
     FM160100 12004KT P6SM SCT250=



000
FTUS44 KHGX 151121
TAFUTS
TAF
KUTS 151121Z 1512/1612 00000KT P6SM SCT030
     FM151500 VRB02KT P6SM SCT040 SCT250
     FM160900 00000KT 6SM BR BKN250=



000
FTUS44 KHGX 151121
TAFIAH
TAF
KIAH 151121Z 1512/1618 VRB03KT P6SM FEW040
     FM151500 09008KT P6SM SCT040
     FM160100 12004KT P6SM SCT250
     FM161500 13005KT P6SM BKN100=



000
FTUS44 KHGX 151121
TAFSGR
TAF
KSGR 151121Z 1512/1612 35004KT P6SM SKC
      TEMPO 1512/1513 5SM BR
     FM151500 09007KT P6SM SCT040
     FM160100 12004KT P6SM SCT250=



000
FTUS44 KHGX 151121
TAFLBX
TAF
KLBX 151121Z 1512/1612 03006KT P6SM BKN027
      TEMPO 1512/1514 5SM BR
     FM151500 09007KT P6SM SCT040 SCT250
     FM160100 12004KT P6SM SCT250
     FM160600 VRB03KT 6SM BR BKN250=



000
FTUS44 KHGX 151121
TAFHOU
TAF
KHOU 151121Z 1512/1612 03005KT P6SM FEW250
     FM151500 09007KT P6SM SCT040 SCT250
     FM160100 12004KT P6SM SCT250=



000
FTUS44 KHGX 151121
TAFGLS
TAF
KGLS 151121Z 1512/1612 36010KT P6SM OVC013
     FM151500 09009KT P6SM SCT040 SCT250
     FM160400 11006KT P6SM BKN250=



000
FTUS44 KHGX 151121
TAFCLL
TAF
KCLL 151121Z 1512/1612 00000KT P6SM VCSH SCT030
      TEMPO 1512/1514 5SM BR
     FM151500 VRB03KT P6SM SCT040 SCT250
     FM160900 00000KT 6SM BR BKN250=



000
FTUS44 KHGX 151121
TAFHOU
TAF
KHOU 151121Z 1512/1612 03005KT P6SM FEW250
     FM151500 09007KT P6SM SCT040 SCT250
     FM160100 12004KT P6SM SCT250=



000
FTUS44 KHGX 151121
TAFLBX
TAF
KLBX 151121Z 1512/1612 03006KT P6SM BKN027
      TEMPO 1512/1514 5SM BR
     FM151500 09007KT P6SM SCT040 SCT250
     FM160100 12004KT P6SM SCT250
     FM160600 VRB03KT 6SM BR BKN250=



000
FTUS44 KHGX 151121
TAFCXO
TAF
KCXO 151121Z 1512/1612 00000KT P6SM SKC
      TEMPO 1512/1513 4SM BR
     FM151500 VRB03KT P6SM SCT040 SCT250
     FM160100 12004KT P6SM SCT250
     FM160500 00000KT 4SM BR BKN250=



000
FTUS44 KHGX 151121
TAFUTS
TAF
KUTS 151121Z 1512/1612 00000KT P6SM SCT030
     FM151500 VRB02KT P6SM SCT040 SCT250
     FM160900 00000KT 6SM BR BKN250=



000
FTUS44 KHGX 151121
TAFIAH
TAF
KIAH 151121Z 1512/1618 VRB03KT P6SM FEW040
     FM151500 09008KT P6SM SCT040
     FM160100 12004KT P6SM SCT250
     FM161500 13005KT P6SM BKN100=



000
FTUS44 KHGX 151121
TAFGLS
TAF
KGLS 151121Z 1512/1612 36010KT P6SM OVC013
     FM151500 09009KT P6SM SCT040 SCT250
     FM160400 11006KT P6SM BKN250=



000
FTUS44 KHGX 151121
TAFSGR
TAF
KSGR 151121Z 1512/1612 35004KT P6SM SKC
      TEMPO 1512/1513 5SM BR
     FM151500 09007KT P6SM SCT040
     FM160100 12004KT P6SM SCT250=



000
FTUS44 KHGX 151121
TAFCXO
TAF
KCXO 151121Z 1512/1612 00000KT P6SM SKC
      TEMPO 1512/1513 4SM BR
     FM151500 VRB03KT P6SM SCT040 SCT250
     FM160100 12004KT P6SM SCT250
     FM160500 00000KT 4SM BR BKN250=



000
FTUS44 KHGX 151121
TAFCLL
TAF
KCLL 151121Z 1512/1612 00000KT P6SM VCSH SCT030
      TEMPO 1512/1514 5SM BR
     FM151500 VRB03KT P6SM SCT040 SCT250
     FM160900 00000KT 6SM BR BKN250=



000
FTUS44 KHGX 150856 AAA
TAFGLS
TAF AMD
KGLS 150856Z 1509/1606 02006KT P6SM BKN013
     FM151500 09009KT P6SM SCT040 SCT250=



000
FTUS44 KHGX 150856 AAA
TAFGLS
TAF AMD
KGLS 150856Z 1509/1606 02006KT P6SM BKN013
     FM151500 09009KT P6SM SCT040 SCT250=



000
FTUS44 KHGX 150856 AAA
TAFCXO
TAF AMD
KCXO 150856Z 1509/1606 33003KT 6SM BR SKC
      TEMPO 1509/1513 4SM BR
     FM151500 VRB03KT P6SM SCT040 SCT250=



000
FTUS44 KHGX 150856 AAA
TAFCXO
TAF AMD
KCXO 150856Z 1509/1606 33003KT 6SM BR SKC
      TEMPO 1509/1513 4SM BR
     FM151500 VRB03KT P6SM SCT040 SCT250=



000
FTUS44 KHGX 150855 AAA
TAFSGR
TAF AMD
KSGR 150855Z 1509/1606 00000KT P6SM SCT025
      TEMPO 1510/1513 5SM BR
     FM151500 09007KT P6SM SCT040=



000
FTUS44 KHGX 150855 AAA
TAFSGR
TAF AMD
KSGR 150855Z 1509/1606 00000KT P6SM SCT025
      TEMPO 1510/1513 5SM BR
     FM151500 09007KT P6SM SCT040=



000
FTUS44 KHGX 150855 AAA
TAFLBX
TAF AMD
KLBX 150855Z 1509/1606 36004KT P6SM SKC
      TEMPO 1510/1513 5SM BR
     FM151500 09007KT P6SM SCT040 SCT250=



000
FTUS44 KHGX 150855 AAA
TAFLBX
TAF AMD
KLBX 150855Z 1509/1606 36004KT P6SM SKC
      TEMPO 1510/1513 5SM BR
     FM151500 09007KT P6SM SCT040 SCT250=



000
FTUS44 KHGX 150852 AAA
TAFHOU
TAF AMD
KHOU 150852Z 1509/1606 04003KT P6SM FEW020
     FM151500 09007KT P6SM SCT040 SCT250=



000
FTUS44 KHGX 150852 AAA
TAFIAH
TAF AMD
KIAH 150852Z 1509/1612 00000KT P6SM FEW030
     FM151500 09007KT P6SM SCT040
     FM160100 12004KT P6SM SCT250=



000
FTUS44 KHGX 150852 AAA
TAFHOU
TAF AMD
KHOU 150852Z 1509/1606 04003KT P6SM FEW020
     FM151500 09007KT P6SM SCT040 SCT250=



000
FTUS44 KHGX 150852 AAA
TAFIAH
TAF AMD
KIAH 150852Z 1509/1612 00000KT P6SM FEW030
     FM151500 09007KT P6SM SCT040
     FM160100 12004KT P6SM SCT250=



000
FTUS44 KHGX 150520
TAFSGR
TAF
KSGR 150520Z 1506/1606 00000KT P6SM OVC025
     FM150900 VRB02KT P6SM SCT025
     FM151500 09007KT P6SM SCT040 SCT250=



000
FTUS44 KHGX 150520
TAFCLL
TAF
KCLL 150520Z 1506/1606 00000KT P6SM SKC
      TEMPO 1510/1513 4SM BR
     FM151500 09005KT P6SM SCT040 SCT250=



000
FTUS44 KHGX 150520
TAFCXO
TAF
KCXO 150520Z 1506/1606 00000KT 6SM BR SCT035
      TEMPO 1509/1513 4SM BR
     FM151500 VRB03KT P6SM SCT040 SCT250=



000
FTUS44 KHGX 150520
TAFHOU
TAF
KHOU 150520Z 1506/1606 00000KT P6SM BKN025
     FM150900 VRB02KT P6SM SCT025
     FM151500 09007KT P6SM SCT040 SCT250=



000
FTUS44 KHGX 150520
TAFSGR
TAF
KSGR 150520Z 1506/1606 00000KT P6SM OVC025
     FM150900 VRB02KT P6SM SCT025
     FM151500 09007KT P6SM SCT040 SCT250=



000
FTUS44 KHGX 150520
TAFCXO
TAF
KCXO 150520Z 1506/1606 00000KT 6SM BR SCT035
      TEMPO 1509/1513 4SM BR
     FM151500 VRB03KT P6SM SCT040 SCT250=



000
FTUS44 KHGX 150520
TAFGLS
TAF
KGLS 150520Z 1506/1606 01009KT P6SM SCT025
     FM151500 09009KT P6SM SCT040 SCT250=



000
FTUS44 KHGX 150520
TAFHOU
TAF
KHOU 150520Z 1506/1606 00000KT P6SM BKN025
     FM150900 VRB02KT P6SM SCT025
     FM151500 09007KT P6SM SCT040 SCT250=



000
FTUS44 KHGX 150520
TAFIAH
TAF
KIAH 150520Z 1506/1612 00000KT P6SM BKN035
     FM151500 09007KT P6SM SCT040 SCT250
     FM160100 12004KT P6SM SCT250=



000
FTUS44 KHGX 150520
TAFLBX
TAF
KLBX 150520Z 1506/1606 00000KT P6SM OVC020
     FM150900 VRB03KT P6SM SCT025
      TEMPO 1510/1513 5SM BR
     FM151500 09007KT P6SM SCT040 SCT250=



000
FTUS44 KHGX 150520
TAFUTS
TAF
KUTS 150520Z 1506/1606 00000KT P6SM OVC035
     FM151500 VRB02KT P6SM SCT040 SCT250=



000
FTUS44 KHGX 150520
TAFIAH
TAF
KIAH 150520Z 1506/1612 00000KT P6SM BKN035
     FM151500 09007KT P6SM SCT040 SCT250
     FM160100 12004KT P6SM SCT250=



000
FTUS44 KHGX 150520
TAFCLL
TAF
KCLL 150520Z 1506/1606 00000KT P6SM SKC
      TEMPO 1510/1513 4SM BR
     FM151500 09005KT P6SM SCT040 SCT250=



000
FTUS44 KHGX 150520
TAFGLS
TAF
KGLS 150520Z 1506/1606 01009KT P6SM SCT025
     FM151500 09009KT P6SM SCT040 SCT250=



000
FTUS44 KHGX 150520
TAFUTS
TAF
KUTS 150520Z 1506/1606 00000KT P6SM OVC035
     FM151500 VRB02KT P6SM SCT040 SCT250=



000
FTUS44 KHGX 150520
TAFLBX
TAF
KLBX 150520Z 1506/1606 00000KT P6SM OVC020
     FM150900 VRB03KT P6SM SCT025
      TEMPO 1510/1513 5SM BR
     FM151500 09007KT P6SM SCT040 SCT250=



000
FTUS44 KHGX 150304 AAA
TAFGLS
TAF AMD
KGLS 150304Z 1503/1524 35005KT P6SM OVC023
     FM150600 VRB04KT P6SM SCT025
     FM151500 09009KT P6SM SCT040 SCT250=



000
FTUS44 KHGX 150304 AAA
TAFGLS
TAF AMD
KGLS 150304Z 1503/1524 35005KT P6SM OVC023
     FM150600 VRB04KT P6SM SCT025
     FM151500 09009KT P6SM SCT040 SCT250=



000
FTUS44 KHGX 150303 AAA
TAFLBX
TAF AMD
KLBX 150303Z 1503/1524 05003KT P6SM OVC020
     FM150600 VRB02KT P6SM SCT025
      TEMPO 1510/1513 5SM BR
     FM151500 09007KT P6SM SCT040 SCT250=



000
FTUS44 KHGX 150303 AAA
TAFLBX
TAF AMD
KLBX 150303Z 1503/1524 05003KT P6SM OVC020
     FM150600 VRB02KT P6SM SCT025
      TEMPO 1510/1513 5SM BR
     FM151500 09007KT P6SM SCT040 SCT250=



000
FTUS44 KHGX 150303 AAA
TAFHOU
TAF AMD
KHOU 150303Z 1503/1524 00000KT P6SM BKN028 BKN160
     FM150600 VRB02KT P6SM SCT025 SCT250
     FM151500 09007KT P6SM SCT040 SCT250=



000
FTUS44 KHGX 150303 AAA
TAFHOU
TAF AMD
KHOU 150303Z 1503/1524 00000KT P6SM BKN028 BKN160
     FM150600 VRB02KT P6SM SCT025 SCT250
     FM151500 09007KT P6SM SCT040 SCT250=



000
FTUS44 KHGX 150302 AAA
TAFIAH
TAF AMD
KIAH 150302Z 1503/1606 00000KT P6SM FEW250
     FM151500 09007KT P6SM SCT040 SCT250=



000
FTUS44 KHGX 142320
TAFHOU
TAF
KHOU 142320Z 1500/1524 01007KT P6SM OVC025
     FM150200 VRB03KT P6SM SCT025
     FM151500 09007KT P6SM SCT040 SCT250=



000
FTUS44 KHGX 142320
TAFGLS
TAF
KGLS 142320Z 1500/1524 36008KT P6SM OVC018
     FM150300 03005KT P6SM SCT020
     FM151500 09009KT P6SM SCT040 SCT250=



000
FTUS44 KHGX 142320
TAFIAH
TAF
KIAH 142320Z 1500/1606 04008KT P6SM OVC025
     FM150200 VRB03KT P6SM SCT025
     FM151500 09007KT P6SM SCT040 SCT250=



000
FTUS44 KHGX 142320
TAFUTS
TAF
KUTS 142320Z 1500/1524 VRB04KT P6SM SCT030
     FM151500 VRB02KT P6SM SCT040 SCT250=



000
FTUS44 KHGX 142320
TAFLBX
TAF
KLBX 142320Z 1500/1524 02007KT P6SM OVC020
     FM150200 VRB02KT P6SM SCT025
      TEMPO 1510/1513 5SM BR
     FM151500 09007KT P6SM SCT040 SCT250=



000
FTUS44 KHGX 142320
TAFCLL
TAF
KCLL 142320Z 1500/1524 04007KT P6SM BKN025
     FM150200 VRB03KT P6SM SCT025
      TEMPO 1510/1513 4SM BR
     FM151500 09005KT P6SM SCT040 SCT250=



000
FTUS44 KHGX 142320
TAFCXO
TAF
KCXO 142320Z 1500/1524 00000KT P6SM BKN028
     FM150100 VRB02KT P6SM SCT030
      TEMPO 1509/1513 4SM BR
     FM151500 VRB03KT P6SM SCT040 SCT250=



000
FTUS44 KHGX 142320
TAFSGR
TAF
KSGR 142320Z 1500/1524 36005KT P6SM OVC025
     FM150200 VRB03KT P6SM SCT025
     FM151500 09007KT P6SM SCT040 SCT250=



000
FTUS44 KHGX 142320
TAFLBX
TAF
KLBX 142320Z 1500/1524 02007KT P6SM OVC020
     FM150200 VRB02KT P6SM SCT025
      TEMPO 1510/1513 5SM BR
     FM151500 09007KT P6SM SCT040 SCT250=



000
FTUS44 KHGX 142320
TAFIAH
TAF
KIAH 142320Z 1500/1606 04008KT P6SM OVC025
     FM150200 VRB03KT P6SM SCT025
     FM151500 09007KT P6SM SCT040 SCT250=



000
FTUS44 KHGX 142320
TAFCXO
TAF
KCXO 142320Z 1500/1524 00000KT P6SM BKN028
     FM150100 VRB02KT P6SM SCT030
      TEMPO 1509/1513 4SM BR
     FM151500 VRB03KT P6SM SCT040 SCT250=



000
FTUS44 KHGX 142320
TAFGLS
TAF
KGLS 142320Z 1500/1524 36008KT P6SM OVC018
     FM150300 03005KT P6SM SCT020
     FM151500 09009KT P6SM SCT040 SCT250=



000
FTUS44 KHGX 142320
TAFCLL
TAF
KCLL 142320Z 1500/1524 04007KT P6SM BKN025
     FM150200 VRB03KT P6SM SCT025
      TEMPO 1510/1513 4SM BR
     FM151500 09005KT P6SM SCT040 SCT250=



000
FTUS44 KHGX 142320
TAFUTS
TAF
KUTS 142320Z 1500/1524 VRB04KT P6SM SCT030
     FM151500 VRB02KT P6SM SCT040 SCT250=



000
FTUS44 KHGX 142320
TAFSGR
TAF
KSGR 142320Z 1500/1524 36005KT P6SM OVC025
     FM150200 VRB03KT P6SM SCT025
     FM151500 09007KT P6SM SCT040 SCT250=



000
FTUS44 KHGX 142320
TAFHOU
TAF
KHOU 142320Z 1500/1524 01007KT P6SM OVC025
     FM150200 VRB03KT P6SM SCT025
     FM151500 09007KT P6SM SCT040 SCT250=



000
FTUS44 KHGX 142102 AAB
TAFHOU
TAF AMD
KHOU 142102Z 1421/1518 01006KT P6SM OVC020
     FM150000 04007KT P6SM SCT025 BKN035
     FM150300 04003KT P6SM SCT035
     FM151500 10006KT P6SM SCT040=



000
FTUS44 KHGX 142102 AAB
TAFHOU
TAF AMD
KHOU 142102Z 1421/1518 01006KT P6SM OVC020
     FM150000 04007KT P6SM SCT025 BKN035
     FM150300 04003KT P6SM SCT035
     FM151500 10006KT P6SM SCT040=



000
FTUS44 KHGX 142102 AAD
TAFIAH
TAF AMD
KIAH 142102Z 1421/1524 01007KT P6SM OVC020
     FM150000 04007KT P6SM SCT025 BKN035
     FM150300 06003KT P6SM SCT035
     FM151500 10006KT P6SM SCT040=



000
FTUS44 KHGX 142102 AAD
TAFIAH
TAF AMD
KIAH 142102Z 1421/1524 01007KT P6SM OVC020
     FM150000 04007KT P6SM SCT025 BKN035
     FM150300 06003KT P6SM SCT035
     FM151500 10006KT P6SM SCT040=



000
FTUS44 KHGX 142010 AAC
TAFIAH
TAF AMD
KIAH 142010Z 1420/1524 02008KT P6SM BKN020
      TEMPO 1421/1422 SCT025 BKN035
     FM142300 04007KT P6SM SCT025 BKN035
     FM150300 06003KT P6SM SCT035
     FM151500 10006KT P6SM SCT040=



000
FTUS44 KHGX 142009 AAB
TAFGLS
TAF AMD
KGLS 142009Z 1420/1518 01009KT P6SM BKN020
      TEMPO 1420/1422 BKN016
     FM142200 04007KT P6SM SCT025 BKN035
     FM150300 05005KT P6SM SCT035
     FM151500 09009KT P6SM SCT040=



000
FTUS44 KHGX 142009 AAB
TAFGLS
TAF AMD
KGLS 142009Z 1420/1518 01009KT P6SM BKN020
      TEMPO 1420/1422 BKN016
     FM142200 04007KT P6SM SCT025 BKN035
     FM150300 05005KT P6SM SCT035
     FM151500 09009KT P6SM SCT040=



000
FTUS44 KHGX 142007 AAB
TAFCLL
TAF AMD
KCLL 142007Z 1420/1518 02006KT P6SM BKN025
      TEMPO 1422/1423 SCT025 BKN035
     FM142300 04006KT P6SM SCT025 SCT035
     FM150300 04003KT P6SM SCT250
     FM151500 10005KT P6SM SCT040=



000
FTUS44 KHGX 142004 AAB
TAFIAH
TAF AMD
KIAH 142004Z 1420/1524 02008KT P6SM BKN020
      TEMPO 1421/1422 SCT025 BKN035
     FM142320 04007KT P6SM SCT025 BKN035
     FM150300 06003KT P6SM SCT035
     FM151500 10006KT P6SM SCT040=



000
FTUS44 KHGX 142001 AAA
TAFHOU
TAF AMD
KHOU 142001Z 1420/1518 02007KT P6SM BKN020
     FM142300 04007KT P6SM SCT025 BKN035
     FM150300 04003KT P6SM SCT035
     FM151500 10006KT P6SM SCT040=



000
FTUS44 KHGX 142001 AAA
TAFHOU
TAF AMD
KHOU 142001Z 1420/1518 02007KT P6SM BKN020
     FM142300 04007KT P6SM SCT025 BKN035
     FM150300 04003KT P6SM SCT035
     FM151500 10006KT P6SM SCT040=



000
FTUS44 KHGX 141959 AAA
TAFCLL
TAF AMD
KCLL 141959Z 1420/1518 02006KT P6SM BKN025
     FM142100 04006KT P6SM SCT025 SCT035
     FM150300 04003KT P6SM SCT250
     FM151500 10005KT P6SM SCT040=



000
FTUS44 KHGX 141959 AAA
TAFCLL
TAF AMD
KCLL 141959Z 1420/1518 02006KT P6SM BKN025
     FM142100 04006KT P6SM SCT025 SCT035
     FM150300 04003KT P6SM SCT250
     FM151500 10005KT P6SM SCT040=



000
FTUS44 KHGX 141907 AAA
TAFGLS
TAF AMD
KGLS 141907Z 1419/1518 02009KT P6SM BKN020
     FM142100 04007KT P6SM SCT025 BKN035
     FM150300 05005KT P6SM SCT035
     FM151500 09009KT P6SM SCT040=



000
FTUS44 KHGX 141907 AAA
TAFGLS
TAF AMD
KGLS 141907Z 1419/1518 02009KT P6SM BKN020
     FM142100 04007KT P6SM SCT025 BKN035
     FM150300 05005KT P6SM SCT035
     FM151500 09009KT P6SM SCT040=



000
FTUS44 KHGX 141906 AAA
TAFSGR
TAF AMD
KSGR 141906Z 1419/1518 04006KT P6SM BKN021
     FM142100 04006KT P6SM SCT025 BKN035
     FM150300 04003KT P6SM SCT035
     FM151500 10005KT P6SM SCT040=



000
FTUS44 KHGX 141906 AAA
TAFSGR
TAF AMD
KSGR 141906Z 1419/1518 04006KT P6SM BKN021
     FM142100 04006KT P6SM SCT025 BKN035
     FM150300 04003KT P6SM SCT035
     FM151500 10005KT P6SM SCT040=



000
FTUS44 KHGX 141905 AAA
TAFIAH
TAF AMD
KIAH 141905Z 1419/1524 02008KT P6SM BKN020
     FM142100 04007KT P6SM SCT025 BKN035
     FM150300 06003KT P6SM SCT035
     FM151500 10006KT P6SM SCT040=



000
FTUS44 KHGX 141905 AAA
TAFIAH
TAF AMD
KIAH 141905Z 1419/1524 02008KT P6SM BKN020
     FM142100 04007KT P6SM SCT025 BKN035
     FM150300 06003KT P6SM SCT035
     FM151500 10006KT P6SM SCT040=



000
FTUS44 KHGX 141903 AAA
TAFCXO
TAF AMD
KCXO 141903Z 1419/1518 36006KT P6SM BKN020
     FM142100 36005KT P6SM SCT025 BKN035
     FM150300 VRB02KT P6SM SCT035
     FM151500 VRB03KT P6SM SCT040=



000
FTUS44 KHGX 141816 AAA
TAFUTS
TAF AMD
KUTS 141816Z 1418/1518 VRB04KT P6SM SCT017 BKN029
      TEMPO 1418/1419 BKN017
     FM142100 36005KT P6SM SCT025 SCT035
     FM150300 VRB02KT P6SM SCT250
     FM151500 VRB02KT P6SM SCT040=



000
FTUS44 KHGX 141816 AAA
TAFUTS
TAF AMD
KUTS 141816Z 1418/1518 VRB04KT P6SM SCT017 BKN029
      TEMPO 1418/1419 BKN017
     FM142100 36005KT P6SM SCT025 SCT035
     FM150300 VRB02KT P6SM SCT250
     FM151500 VRB02KT P6SM SCT040=



000
FTUS44 KHGX 141723
TAFUTS
TAF
KUTS 141723Z 1418/1518 VRB04KT P6SM SCT020 BKN025
     FM142100 36005KT P6SM SCT025 SCT035
     FM150300 VRB02KT P6SM SCT250
     FM151500 VRB02KT P6SM SCT040=



000
FTUS44 KHGX 141723
TAFCLL
TAF
KCLL 141723Z 1418/1518 04006KT P6SM BKN025
      TEMPO 1418/1420 BKN015
     FM142100 04006KT P6SM SCT025 SCT035
     FM150300 04003KT P6SM SCT250
     FM151500 10005KT P6SM SCT040=



000
FTUS44 KHGX 141723
TAFLBX
TAF
KLBX 141723Z 1418/1518 04008KT P6SM BKN011
     FM142100 04007KT P6SM SCT025 BKN035
     FM150300 VRB02KT P6SM SCT035
      TEMPO 1510/1514 5SM BR
     FM151500 07005KT P6SM SCT040=



000
FTUS44 KHGX 141723
TAFSGR
TAF
KSGR 141723Z 1418/1518 04006KT P6SM BKN020
      TEMPO 1418/1420 BKN016
     FM142100 04006KT P6SM SCT025 BKN035
     FM150300 04003KT P6SM SCT035
     FM151500 10005KT P6SM SCT040=



000
FTUS44 KHGX 141723
TAFIAH
TAF
KIAH 141723Z 1418/1524 04008KT P6SM BKN020
      TEMPO 1418/1420 BKN013
     FM142100 04007KT P6SM SCT025 BKN035
     FM150300 06003KT P6SM SCT035
     FM151500 10006KT P6SM SCT040=



000
FTUS44 KHGX 141723
TAFCXO
TAF
KCXO 141723Z 1418/1518 36006KT P6SM BKN020
      TEMPO 1418/1420 BKN013
     FM142100 36005KT P6SM SCT025 BKN035
     FM150300 VRB02KT P6SM SCT035
     FM151500 VRB03KT P6SM SCT040=



000
FTUS44 KHGX 141723
TAFGLS
TAF
KGLS 141723Z 1418/1518 03009KT P6SM BKN012
     FM142100 04007KT P6SM SCT025 BKN035
     FM150300 05005KT P6SM SCT035
     FM151500 09009KT P6SM SCT040=



000
FTUS44 KHGX 141723
TAFHOU
TAF
KHOU 141723Z 1418/1518 04007KT P6SM BKN020
      TEMPO 1418/1420 BKN015
     FM142100 04007KT P6SM SCT025 BKN035
     FM150300 04003KT P6SM SCT035
     FM151500 10006KT P6SM SCT040=



000
FTUS44 KHGX 141723
TAFCLL
TAF
KCLL 141723Z 1418/1518 04006KT P6SM BKN025
      TEMPO 1418/1420 BKN015
     FM142100 04006KT P6SM SCT025 SCT035
     FM150300 04003KT P6SM SCT250
     FM151500 10005KT P6SM SCT040=



000
FTUS44 KHGX 141723
TAFIAH
TAF
KIAH 141723Z 1418/1524 04008KT P6SM BKN020
      TEMPO 1418/1420 BKN013
     FM142100 04007KT P6SM SCT025 BKN035
     FM150300 06003KT P6SM SCT035
     FM151500 10006KT P6SM SCT040=



000
FTUS44 KHGX 141723
TAFCXO
TAF
KCXO 141723Z 1418/1518 36006KT P6SM BKN020
      TEMPO 1418/1420 BKN013
     FM142100 36005KT P6SM SCT025 BKN035
     FM150300 VRB02KT P6SM SCT035
     FM151500 VRB03KT P6SM SCT040=



000
FTUS44 KHGX 141723
TAFHOU
TAF
KHOU 141723Z 1418/1518 04007KT P6SM BKN020
      TEMPO 1418/1420 BKN015
     FM142100 04007KT P6SM SCT025 BKN035
     FM150300 04003KT P6SM SCT035
     FM151500 10006KT P6SM SCT040=



000
FTUS44 KHGX 141723
TAFLBX
TAF
KLBX 141723Z 1418/1518 04008KT P6SM BKN011
     FM142100 04007KT P6SM SCT025 BKN035
     FM150300 VRB02KT P6SM SCT035
      TEMPO 1510/1514 5SM BR
     FM151500 07005KT P6SM SCT040=



000
FTUS44 KHGX 141723
TAFGLS
TAF
KGLS 141723Z 1418/1518 03009KT P6SM BKN012
     FM142100 04007KT P6SM SCT025 BKN035
     FM150300 05005KT P6SM SCT035
     FM151500 09009KT P6SM SCT040=



000
FTUS44 KHGX 141723
TAFSGR
TAF
KSGR 141723Z 1418/1518 04006KT P6SM BKN020
      TEMPO 1418/1420 BKN016
     FM142100 04006KT P6SM SCT025 BKN035
     FM150300 04003KT P6SM SCT035
     FM151500 10005KT P6SM SCT040=



000
FTUS44 KHGX 141723
TAFUTS
TAF
KUTS 141723Z 1418/1518 VRB04KT P6SM SCT020 BKN025
     FM142100 36005KT P6SM SCT025 SCT035
     FM150300 VRB02KT P6SM SCT250
     FM151500 VRB02KT P6SM SCT040=



000
FTUS44 KHGX 141409 AAA
TAFCLL
TAF AMD
KCLL 141409Z 1414/1512 03008KT P6SM OVC009
      TEMPO 1414/1416 5SM BR
     FM141700 04008KT P6SM BKN025
     FM141900 05007KT P6SM BKN050
     FM150200 00000KT P6SM BKN250=



000
FTUS44 KHGX 141409 AAA
TAFCLL
TAF AMD
KCLL 141409Z 1414/1512 03008KT P6SM OVC009
      TEMPO 1414/1416 5SM BR
     FM141700 04008KT P6SM BKN025
     FM141900 05007KT P6SM BKN050
     FM150200 00000KT P6SM BKN250=



000
FTUS44 KHGX 141408 AAA
TAFGLS
TAF AMD
KGLS 141408Z 1414/1512 03011KT P6SM OVC007
      TEMPO 1414/1417 3SM BR
     FM141700 04010KT P6SM BKN025
     FM141900 05007KT P6SM SCT035 BKN100
     FM150000 07008KT P6SM BKN250=



000
FTUS44 KHGX 141408 AAA
TAFGLS
TAF AMD
KGLS 141408Z 1414/1512 03011KT P6SM OVC007
      TEMPO 1414/1417 3SM BR
     FM141700 04010KT P6SM BKN025
     FM141900 05007KT P6SM SCT035 BKN100
     FM150000 07008KT P6SM BKN250=



000
FTUS44 KHGX 141407 AAA
TAFSGR
TAF AMD
KSGR 141407Z 1414/1512 04009KT P6SM OVC008
      TEMPO 1414/1416 5SM BR
     FM141700 04008KT P6SM BKN025
     FM142000 05007KT P6SM SCT035 BKN100
     FM150200 07004KT P6SM BKN250=



000
FTUS44 KHGX 141407 AAA
TAFSGR
TAF AMD
KSGR 141407Z 1414/1512 04009KT P6SM OVC008
      TEMPO 1414/1416 5SM BR
     FM141700 04008KT P6SM BKN025
     FM142000 05007KT P6SM SCT035 BKN100
     FM150200 07004KT P6SM BKN250=



000
FTUS44 KHGX 141407 AAB
TAFLBX
TAF AMD
KLBX 141407Z 1414/1512 02007KT P6SM OVC006
      TEMPO 1414/1416 4SM BR
     FM141700 04008KT P6SM BKN025
     FM142000 05007KT P6SM SCT035 BKN100
     FM150300 00000KT P6SM BKN250=



000
FTUS44 KHGX 141407 AAB
TAFLBX
TAF AMD
KLBX 141407Z 1414/1512 02007KT P6SM OVC006
      TEMPO 1414/1416 4SM BR
     FM141700 04008KT P6SM BKN025
     FM142000 05007KT P6SM SCT035 BKN100
     FM150300 00000KT P6SM BKN250=



000
FTUS44 KHGX 141406 AAA
TAFIAH
TAF AMD
KIAH 141406Z 1414/1518 03008KT 5SM BR OVC007
      TEMPO 1414/1416 2SM BR
     FM141700 04008KT P6SM BKN025
     FM142000 04007KT P6SM SCT035 BKN100
     FM151000 06003KT P6SM BKN250=



000
FTUS44 KHGX 141406 AAA
TAFHOU
TAF AMD
KHOU 141406Z 1414/1512 03010KT P6SM OVC009
     FM141700 04008KT P6SM BKN025
     FM142000 05007KT P6SM SCT035 BKN100
     FM150200 07004KT P6SM BKN250=



000
FTUS44 KHGX 141406 AAA
TAFHOU
TAF AMD
KHOU 141406Z 1414/1512 03010KT P6SM OVC009
     FM141700 04008KT P6SM BKN025
     FM142000 05007KT P6SM SCT035 BKN100
     FM150200 07004KT P6SM BKN250=



000
FTUS44 KHGX 141238 AAA
TAFLBX
TAF AMD
KLBX 141238Z 1413/1512 02007KT 6SM BR OVC004
     FM141500 03007KT P6SM BKN015
     FM141800 04008KT P6SM BKN025
     FM142000 05007KT P6SM SCT035 BKN100
     FM150300 00000KT P6SM BKN250=



000
FTUS44 KHGX 141130
TAFGLS
TAF
KGLS 141130Z 1412/1512 03011KT P6SM OVC010
     FM141500 03007KT P6SM BKN025
     FM141900 05007KT P6SM SCT035 BKN100
     FM150000 07008KT P6SM BKN250=



000
FTUS44 KHGX 141130
TAFUTS
TAF
KUTS 141130Z 1412/1512 VRB04KT P6SM OVC014
     FM141600 VRB03KT P6SM BKN025
     FM141900 VRB03KT P6SM BKN050
     FM150200 00000KT P6SM BKN250=



000
FTUS44 KHGX 141130
TAFHOU
TAF
KHOU 141130Z 1412/1512 03009KT P6SM OVC009
     FM141400 03007KT P6SM BKN015
     FM141700 04008KT P6SM BKN025
     FM142000 05007KT P6SM SCT035 BKN100
     FM150200 07004KT P6SM BKN250=



000
FTUS44 KHGX 141130
TAFCLL
TAF
KCLL 141130Z 1412/1512 05006KT P6SM OVC014
     FM141600 04008KT P6SM BKN025
     FM141900 05007KT P6SM BKN050
     FM150200 00000KT P6SM BKN250=



000
FTUS44 KHGX 141130
TAFIAH
TAF
KIAH 141130Z 1412/1518 05007KT 4SM BR BKN005 OVC010
     FM141400 03007KT P6SM BKN015
     FM141700 04008KT P6SM BKN025
     FM142000 04007KT P6SM SCT035 BKN100
     FM151000 06003KT P6SM BKN250=



000
FTUS44 KHGX 141130
TAFSGR
TAF
KSGR 141130Z 1412/1512 04007KT P6SM OVC007
     FM141400 03007KT P6SM BKN015
     FM141700 04008KT P6SM BKN025
     FM142000 05007KT P6SM SCT035 BKN100
     FM150200 07004KT P6SM BKN250=



000
FTUS44 KHGX 141130
TAFLBX
TAF
KLBX 141130Z 1412/1512 03007KT P6SM OVC006
     FM141400 03007KT P6SM BKN015
     FM141800 04008KT P6SM BKN025
     FM142000 05007KT P6SM SCT035 BKN100
     FM150300 00000KT P6SM BKN250=



000
FTUS44 KHGX 141130
TAFCXO
TAF
KCXO 141130Z 1412/1512 36004KT 6SM BR BKN009 OVC014
     FM141400 03005KT P6SM BKN015
     FM141700 03006KT P6SM BKN025
     FM141900 05005KT P6SM BKN050
     FM150200 00000KT P6SM BKN250=



000
FTUS44 KHGX 141130
TAFIAH
TAF
KIAH 141130Z 1412/1518 05007KT 4SM BR BKN005 OVC010
     FM141400 03007KT P6SM BKN015
     FM141700 04008KT P6SM BKN025
     FM142000 04007KT P6SM SCT035 BKN100
     FM151000 06003KT P6SM BKN250=



000
FTUS44 KHGX 141130
TAFCLL
TAF
KCLL 141130Z 1412/1512 05006KT P6SM OVC014
     FM141600 04008KT P6SM BKN025
     FM141900 05007KT P6SM BKN050
     FM150200 00000KT P6SM BKN250=



000
FTUS44 KHGX 141130
TAFUTS
TAF
KUTS 141130Z 1412/1512 VRB04KT P6SM OVC014
     FM141600 VRB03KT P6SM BKN025
     FM141900 VRB03KT P6SM BKN050
     FM150200 00000KT P6SM BKN250=



000
FTUS44 KHGX 141130
TAFSGR
TAF
KSGR 141130Z 1412/1512 04007KT P6SM OVC007
     FM141400 03007KT P6SM BKN015
     FM141700 04008KT P6SM BKN025
     FM142000 05007KT P6SM SCT035 BKN100
     FM150200 07004KT P6SM BKN250=



000
FTUS44 KHGX 141130
TAFHOU
TAF
KHOU 141130Z 1412/1512 03009KT P6SM OVC009
     FM141400 03007KT P6SM BKN015
     FM141700 04008KT P6SM BKN025
     FM142000 05007KT P6SM SCT035 BKN100
     FM150200 07004KT P6SM BKN250=



000
FTUS44 KHGX 141130
TAFGLS
TAF
KGLS 141130Z 1412/1512 03011KT P6SM OVC010
     FM141500 03007KT P6SM BKN025
     FM141900 05007KT P6SM SCT035 BKN100
     FM150000 07008KT P6SM BKN250=



000
FTUS44 KHGX 141130
TAFCXO
TAF
KCXO 141130Z 1412/1512 36004KT 6SM BR BKN009 OVC014
     FM141400 03005KT P6SM BKN015
     FM141700 03006KT P6SM BKN025
     FM141900 05005KT P6SM BKN050
     FM150200 00000KT P6SM BKN250=



000
FTUS44 KHGX 141130
TAFLBX
TAF
KLBX 141130Z 1412/1512 03007KT P6SM OVC006
     FM141400 03007KT P6SM BKN015
     FM141800 04008KT P6SM BKN025
     FM142000 05007KT P6SM SCT035 BKN100
     FM150300 00000KT P6SM BKN250=



000
FTUS44 KHGX 140914 AAA
TAFSGR
TAF AMD
KSGR 140914Z 1409/1506 05010KT P6SM OVC009
     FM141400 03007KT P6SM BKN025 BKN035
     FM142000 05007KT P6SM SCT035 SCT100=



000
FTUS44 KHGX 140914 AAA
TAFLBX
TAF AMD
KLBX 140914Z 1409/1506 04007KT P6SM OVC009
     FM141400 03007KT P6SM BKN025 BKN035
     FM142000 05007KT P6SM SCT035 SCT100=



000
FTUS44 KHGX 140914 AAA
TAFLBX
TAF AMD
KLBX 140914Z 1409/1506 04007KT P6SM OVC009
     FM141400 03007KT P6SM BKN025 BKN035
     FM142000 05007KT P6SM SCT035 SCT100=



000
FTUS44 KHGX 140912 AAB
TAFHOU
TAF AMD
KHOU 140912Z 1409/1506 04011KT P6SM OVC007
     FM141400 03007KT P6SM BKN025 BKN035
     FM142000 05007KT P6SM SCT035 SCT100=



000
FTUS44 KHGX 140912 AAB
TAFIAH
TAF AMD
KIAH 140912Z 1409/1512 05007KT 4SM BR BKN006 OVC012
     FM141400 03007KT P6SM BKN025 BKN035
     FM142000 04007KT P6SM SCT035 SCT100=



000
FTUS44 KHGX 140912 AAB
TAFHOU
TAF AMD
KHOU 140912Z 1409/1506 04011KT P6SM OVC007
     FM141400 03007KT P6SM BKN025 BKN035
     FM142000 05007KT P6SM SCT035 SCT100=



000
FTUS44 KHGX 140912 AAB
TAFIAH
TAF AMD
KIAH 140912Z 1409/1512 05007KT 4SM BR BKN006 OVC012
     FM141400 03007KT P6SM BKN025 BKN035
     FM142000 04007KT P6SM SCT035 SCT100=



000
FTUS44 KHGX 140827 AAA
TAFHOU
TAF AMD
KHOU 140827Z 1408/1506 05011KT P6SM OVC008
     FM141400 03007KT P6SM BKN025 BKN035
     FM142000 05007KT P6SM SCT035 SCT100=



000
FTUS44 KHGX 140827 AAA
TAFHOU
TAF AMD
KHOU 140827Z 1408/1506 05011KT P6SM OVC008
     FM141400 03007KT P6SM BKN025 BKN035
     FM142000 05007KT P6SM SCT035 SCT100=



000
FTUS44 KHGX 140826 AAA
TAFIAH
TAF AMD
KIAH 140826Z 1408/1512 03007KT 5SM BR OVC006
     FM141400 03007KT P6SM BKN025 BKN035
     FM142000 04007KT P6SM SCT035 SCT100=



000
FTUS44 KHGX 140826 AAA
TAFIAH
TAF AMD
KIAH 140826Z 1408/1512 03007KT 5SM BR OVC006
     FM141400 03007KT P6SM BKN025 BKN035
     FM142000 04007KT P6SM SCT035 SCT100=



000
FTUS44 KHGX 140826 AAA
TAFGLS
TAF AMD
KGLS 140826Z 1408/1506 02012KT P6SM OVC009
     FM141400 03007KT P6SM BKN025 BKN035
     FM141900 05007KT P6SM SCT035 SCT100=



000
FTUS44 KHGX 140826 AAA
TAFCXO
TAF AMD
KCXO 140826Z 1408/1506 00000KT 3SM BR OVC008
     FM141400 03005KT P6SM BKN025 BKN040
     FM141900 05005KT P6SM SCT050=



000
FTUS44 KHGX 140826 AAA
TAFCXO
TAF AMD
KCXO 140826Z 1408/1506 00000KT 3SM BR OVC008
     FM141400 03005KT P6SM BKN025 BKN040
     FM141900 05005KT P6SM SCT050=



000
FTUS44 KHGX 140528
TAFCLL
TAF
KCLL 140528Z 1406/1506 01007KT P6SM OVC018
     FM141400 04008KT P6SM BKN025 BKN040
     FM141900 05007KT P6SM SCT050=



000
FTUS44 KHGX 140528
TAFHOU
TAF
KHOU 140528Z 1406/1506 03010KT P6SM OVC015
     FM141400 03007KT P6SM BKN025 BKN035
     FM142000 05007KT P6SM SCT035 SCT100=



000
FTUS44 KHGX 140528
TAFSGR
TAF
KSGR 140528Z 1406/1506 03009KT P6SM OVC015
     FM141400 03007KT P6SM BKN025 BKN035
     FM142000 05007KT P6SM SCT035 SCT100=



000
FTUS44 KHGX 140528
TAFIAH
TAF
KIAH 140528Z 1406/1512 03009KT P6SM OVC012
     FM141400 03007KT P6SM BKN025 BKN035
     FM142000 04007KT P6SM SCT035 SCT100=



000
FTUS44 KHGX 140528
TAFUTS
TAF
KUTS 140528Z 1406/1506 VRB05KT P6SM OVC012
     FM141400 VRB03KT P6SM BKN025 BKN040
     FM141900 VRB03KT P6SM SCT050=



000
FTUS44 KHGX 140528
TAFGLS
TAF
KGLS 140528Z 1406/1506 02013KT P6SM OVC012
     FM141400 03007KT P6SM BKN025 BKN035
     FM141900 05007KT P6SM SCT035 SCT100=



000
FTUS44 KHGX 140528
TAFLBX
TAF
KLBX 140528Z 1406/1506 01010KT P6SM OVC012
     FM141400 03007KT P6SM BKN025 BKN035
     FM142000 05007KT P6SM SCT035 SCT100=



000
FTUS44 KHGX 140528
TAFCXO
TAF
KCXO 140528Z 1406/1506 01005KT P6SM OVC012
     FM141400 03005KT P6SM BKN025 BKN040
     FM141900 05005KT P6SM SCT050=



000
FTUS44 KHGX 140528
TAFIAH
TAF
KIAH 140528Z 1406/1512 03009KT P6SM OVC012
     FM141400 03007KT P6SM BKN025 BKN035
     FM142000 04007KT P6SM SCT035 SCT100=



000
FTUS44 KHGX 140528
TAFSGR
TAF
KSGR 140528Z 1406/1506 03009KT P6SM OVC015
     FM141400 03007KT P6SM BKN025 BKN035
     FM142000 05007KT P6SM SCT035 SCT100=



000
FTUS44 KHGX 140528
TAFCXO
TAF
KCXO 140528Z 1406/1506 01005KT P6SM OVC012
     FM141400 03005KT P6SM BKN025 BKN040
     FM141900 05005KT P6SM SCT050=



000
FTUS44 KHGX 140528
TAFCLL
TAF
KCLL 140528Z 1406/1506 01007KT P6SM OVC018
     FM141400 04008KT P6SM BKN025 BKN040
     FM141900 05007KT P6SM SCT050=



000
FTUS44 KHGX 140528
TAFGLS
TAF
KGLS 140528Z 1406/1506 02013KT P6SM OVC012
     FM141400 03007KT P6SM BKN025 BKN035
     FM141900 05007KT P6SM SCT035 SCT100=



000
FTUS44 KHGX 140528
TAFHOU
TAF
KHOU 140528Z 1406/1506 03010KT P6SM OVC015
     FM141400 03007KT P6SM BKN025 BKN035
     FM142000 05007KT P6SM SCT035 SCT100=



000
FTUS44 KHGX 140528
TAFUTS
TAF
KUTS 140528Z 1406/1506 VRB05KT P6SM OVC012
     FM141400 VRB03KT P6SM BKN025 BKN040
     FM141900 VRB03KT P6SM SCT050=



000
FTUS44 KHGX 140528
TAFLBX
TAF
KLBX 140528Z 1406/1506 01010KT P6SM OVC012
     FM141400 03007KT P6SM BKN025 BKN035
     FM142000 05007KT P6SM SCT035 SCT100=



000
FTUS44 KHGX 140403 AAB
TAFCLL
TAF AMD
KCLL 140403Z 1404/1424 01007KT P6SM OVC018
     FM140600 02007KT P6SM BKN020 OVC030
     FM141400 04008KT P6SM BKN025 BKN040
     FM141900 06007KT P6SM SCT050=



000
FTUS44 KHGX 140403 AAB
TAFCLL
TAF AMD
KCLL 140403Z 1404/1424 01007KT P6SM OVC018
     FM140600 02007KT P6SM BKN020 OVC030
     FM141400 04008KT P6SM BKN025 BKN040
     FM141900 06007KT P6SM SCT050=



000
FTUS44 KHGX 140400 AAA
TAFGLS
TAF AMD
KGLS 140400Z 1404/1424 02013KT P6SM OVC012
     FM141400 03007KT P6SM BKN025 BKN035
     FM141900 05007KT P6SM SCT035 SCT100=



000
FTUS44 KHGX 140400 AAA
TAFGLS
TAF AMD
KGLS 140400Z 1404/1424 02013KT P6SM OVC012
     FM141400 03007KT P6SM BKN025 BKN035
     FM141900 05007KT P6SM SCT035 SCT100=



000
FTUS44 KHGX 140306 AAA
TAFCLL
TAF AMD
KCLL 140306Z 1403/1424 02009KT P6SM OVC020
     FM140600 02007KT P6SM BKN020 OVC030
     FM141400 04008KT P6SM BKN025 BKN040
     FM141900 06007KT P6SM SCT050=



000
FTUS44 KHGX 140306 AAA
TAFLBX
TAF AMD
KLBX 140306Z 1403/1424 01009KT P6SM OVC018
     FM141400 03007KT P6SM BKN025 BKN035
     FM142000 05007KT P6SM SCT035 SCT100=



000
FTUS44 KHGX 140306 AAA
TAFSGR
TAF AMD
KSGR 140306Z 1403/1424 03008KT P6SM OVC018
     FM141400 03007KT P6SM BKN025 BKN035
     FM142000 05007KT P6SM SCT035 SCT100=



000
FTUS44 KHGX 140306 AAA
TAFSGR
TAF AMD
KSGR 140306Z 1403/1424 03008KT P6SM OVC018
     FM141400 03007KT P6SM BKN025 BKN035
     FM142000 05007KT P6SM SCT035 SCT100=



000
FTUS44 KHGX 140305 AAA
TAFIAH
TAF AMD
KIAH 140305Z 1403/1506 03008KT P6SM OVC015
     FM141400 03007KT P6SM BKN025 BKN035
     FM142000 04007KT P6SM SCT035 SCT100=



000
FTUS44 KHGX 140305 AAA
TAFHOU
TAF AMD
KHOU 140305Z 1403/1424 02010KT P6SM OVC015
     FM141400 03007KT P6SM BKN025 BKN035
     FM142000 05007KT P6SM SCT035 SCT100=



000
FTUS44 KHGX 140305 AAA
TAFHOU
TAF AMD
KHOU 140305Z 1403/1424 02010KT P6SM OVC015
     FM141400 03007KT P6SM BKN025 BKN035
     FM142000 05007KT P6SM SCT035 SCT100=



000
FTUS44 KHGX 140223 AAA
TAFCXO
TAF AMD
KCXO 140223Z 1402/1424 02005KT P6SM OVC015
     FM140600 02003KT P6SM BKN020 OVC030
     FM141400 03005KT P6SM BKN025 BKN040
     FM141900 05005KT P6SM SCT050=



000
FTUS44 KHGX 140223 AAA
TAFCXO
TAF AMD
KCXO 140223Z 1402/1424 02005KT P6SM OVC015
     FM140600 02003KT P6SM BKN020 OVC030
     FM141400 03005KT P6SM BKN025 BKN040
     FM141900 05005KT P6SM SCT050=



000
FTUS44 KHGX 132321
TAFCXO
TAF
KCXO 132321Z 1400/1424 02005KT P6SM OVC020
     FM140600 02003KT P6SM BKN020 OVC030
     FM141400 03005KT P6SM BKN025 BKN040
     FM141900 05005KT P6SM SCT050=



000
FTUS44 KHGX 132321
TAFCXO
TAF
KCXO 132321Z 1400/1424 02005KT P6SM OVC020
     FM140600 02003KT P6SM BKN020 OVC030
     FM141400 03005KT P6SM BKN025 BKN040
     FM141900 05005KT P6SM SCT050=



000
FTUS44 KHGX 132321
TAFLBX
TAF
KLBX 132321Z 1400/1424 02010KT P6SM OVC018
     FM140300 03003KT P6SM BKN020 OVC030
     FM141400 03007KT P6SM BKN025 BKN035
     FM142000 05007KT P6SM SCT035 SCT100=



000
FTUS44 KHGX 132321
TAFSGR
TAF
KSGR 132321Z 1400/1424 02009KT P6SM OVC020
     FM140300 03007KT P6SM BKN020 OVC030
     FM141400 03007KT P6SM BKN025 BKN035
     FM142000 05007KT P6SM SCT035 SCT100=



000
FTUS44 KHGX 132321
TAFGLS
TAF
KGLS 132321Z 1400/1424 02013KT P6SM OVC018
     FM140400 03003KT P6SM BKN020 OVC030
     FM141400 03007KT P6SM BKN025 BKN035
     FM141900 05007KT P6SM SCT035 SCT100=



000
FTUS44 KHGX 132321
TAFCLL
TAF
KCLL 132321Z 1400/1424 02009KT P6SM OVC015
     FM140600 02007KT P6SM BKN020 OVC030
     FM141400 04008KT P6SM BKN025 BKN040
     FM141900 06007KT P6SM SCT050=



000
FTUS44 KHGX 132321
TAFIAH
TAF
KIAH 132321Z 1400/1506 02009KT P6SM OVC018
     FM140300 03007KT P6SM BKN020 OVC030
     FM141400 03007KT P6SM BKN025 BKN035
     FM142000 04007KT P6SM SCT035 SCT100=



000
FTUS44 KHGX 132321
TAFHOU
TAF
KHOU 132321Z 1400/1424 02009KT P6SM OVC018
     FM140300 03007KT P6SM BKN020 OVC030
     FM141400 03007KT P6SM BKN025 BKN035
     FM142000 05007KT P6SM SCT035 SCT100=



000
FTUS44 KHGX 132321
TAFUTS
TAF
KUTS 132321Z 1400/1424 VRB03KT P6SM OVC018
     FM140600 VRB03KT P6SM BKN020 OVC030
     FM141400 VRB03KT P6SM BKN025 BKN040
     FM141900 VRB03KT P6SM SCT050=



000
FTUS44 KHGX 132321
TAFLBX
TAF
KLBX 132321Z 1400/1424 02010KT P6SM OVC018
     FM140300 03003KT P6SM BKN020 OVC030
     FM141400 03007KT P6SM BKN025 BKN035
     FM142000 05007KT P6SM SCT035 SCT100=



000
FTUS44 KHGX 132321
TAFCLL
TAF
KCLL 132321Z 1400/1424 02009KT P6SM OVC015
     FM140600 02007KT P6SM BKN020 OVC030
     FM141400 04008KT P6SM BKN025 BKN040
     FM141900 06007KT P6SM SCT050=



000
FTUS44 KHGX 132321
TAFIAH
TAF
KIAH 132321Z 1400/1506 02009KT P6SM OVC018
     FM140300 03007KT P6SM BKN020 OVC030
     FM141400 03007KT P6SM BKN025 BKN035
     FM142000 04007KT P6SM SCT035 SCT100=



000
FTUS44 KHGX 132321
TAFUTS
TAF
KUTS 132321Z 1400/1424 VRB03KT P6SM OVC018
     FM140600 VRB03KT P6SM BKN020 OVC030
     FM141400 VRB03KT P6SM BKN025 BKN040
     FM141900 VRB03KT P6SM SCT050=



000
FTUS44 KHGX 132321
TAFSGR
TAF
KSGR 132321Z 1400/1424 02009KT P6SM OVC020
     FM140300 03007KT P6SM BKN020 OVC030
     FM141400 03007KT P6SM BKN025 BKN035
     FM142000 05007KT P6SM SCT035 SCT100=



000
FTUS44 KHGX 132321
TAFHOU
TAF
KHOU 132321Z 1400/1424 02009KT P6SM OVC018
     FM140300 03007KT P6SM BKN020 OVC030
     FM141400 03007KT P6SM BKN025 BKN035
     FM142000 05007KT P6SM SCT035 SCT100=



000
FTUS44 KHGX 132321
TAFGLS
TAF
KGLS 132321Z 1400/1424 02013KT P6SM OVC018
     FM140400 03003KT P6SM BKN020 OVC030
     FM141400 03007KT P6SM BKN025 BKN035
     FM141900 05007KT P6SM SCT035 SCT100=



000
FTUS44 KHGX 132115 AAB
TAFGLS
TAF AMD
KGLS 132115Z 1321/1418 03013KT P6SM OVC018
     FM140300 02012KT P6SM BKN020 BKN050
     FM141400 02011KT P6SM SCT025 BKN050=



000
FTUS44 KHGX 132115 AAB
TAFGLS
TAF AMD
KGLS 132115Z 1321/1418 03013KT P6SM OVC018
     FM140300 02012KT P6SM BKN020 BKN050
     FM141400 02011KT P6SM SCT025 BKN050=



000
FTUS44 KHGX 132114 AAB
TAFCXO
TAF AMD
KCXO 132114Z 1321/1418 01007KT P6SM OVC018
     FM140300 VRB03KT P6SM BKN020 BKN050
      TEMPO 1409/1413 5SM BR
     FM141400 35005KT P6SM SCT025 BKN050=



000
FTUS44 KHGX 132114 AAB
TAFCXO
TAF AMD
KCXO 132114Z 1321/1418 01007KT P6SM OVC018
     FM140300 VRB03KT P6SM BKN020 BKN050
      TEMPO 1409/1413 5SM BR
     FM141400 35005KT P6SM SCT025 BKN050=



000
FTUS44 KHGX 132113 AAA
TAFUTS
TAF AMD
KUTS 132113Z 1321/1418 36005KT P6SM OVC015
     FM140300 VRB02KT P6SM BKN020 BKN050
     FM141400 36003KT P6SM SCT025 BKN050=



000
FTUS44 KHGX 132113 AAA
TAFUTS
TAF AMD
KUTS 132113Z 1321/1418 36005KT P6SM OVC015
     FM140300 VRB02KT P6SM BKN020 BKN050
     FM141400 36003KT P6SM SCT025 BKN050=



000
FTUS44 KHGX 132100 AAA
TAFHOU
TAF AMD
KHOU 132100Z 1321/1418 02010KT P6SM OVC016
     FM140000 02009KT P6SM SCT015 BKN025
     FM141400 03007KT P6SM SCT025 BKN050=



000
FTUS44 KHGX 132100 AAA
TAFHOU
TAF AMD
KHOU 132100Z 1321/1418 02010KT P6SM OVC016
     FM140000 02009KT P6SM SCT015 BKN025
     FM141400 03007KT P6SM SCT025 BKN050=



000
FTUS44 KHGX 132059 AAA
TAFIAH
TAF AMD
KIAH 132059Z 1321/1424 02012KT P6SM OVC017
     FM140000 01010KT P6SM SCT015 BKN025
     FM141400 03006KT P6SM SCT025 BKN050
     FM141800 04007KT P6SM SCT100=



000
FTUS44 KHGX 132059 AAA
TAFIAH
TAF AMD
KIAH 132059Z 1321/1424 02012KT P6SM OVC017
     FM140000 01010KT P6SM SCT015 BKN025
     FM141400 03006KT P6SM SCT025 BKN050
     FM141800 04007KT P6SM SCT100=



000
FTUS44 KHGX 132037 AAA
TAFSGR
TAF AMD
KSGR 132037Z 1321/1418 01011KT P6SM OVC021
     FM132200 02008KT P6SM SCT015 BKN025
     FM141400 01005KT P6SM SCT025 BKN050=



000
FTUS44 KHGX 132037 AAA
TAFSGR
TAF AMD
KSGR 132037Z 1321/1418 01011KT P6SM OVC021
     FM132200 02008KT P6SM SCT015 BKN025
     FM141400 01005KT P6SM SCT025 BKN050=



000
FTUS44 KHGX 132037 AAA
TAFCXO
TAF AMD
KCXO 132037Z 1321/1418 01007KT P6SM OVC016
     FM132100 36007KT P6SM SCT015 BKN025
      TEMPO 1409/1413 5SM BR
     FM141400 35005KT P6SM SCT025 BKN050=



000
FTUS44 KHGX 132037 AAA
TAFCXO
TAF AMD
KCXO 132037Z 1321/1418 01007KT P6SM OVC016
     FM132100 36007KT P6SM SCT015 BKN025
      TEMPO 1409/1413 5SM BR
     FM141400 35005KT P6SM SCT025 BKN050=



000
FTUS44 KHGX 132035 AAC
TAFLBX
TAF AMD
KLBX 132035Z 1321/1418 04010KT P6SM BKN015 OVC060
     FM141400 01005KT P6SM SCT025 BKN050=



000
FTUS44 KHGX 132035 AAC
TAFLBX
TAF AMD
KLBX 132035Z 1321/1418 04010KT P6SM BKN015 OVC060
     FM141400 01005KT P6SM SCT025 BKN050=



000
FTUS44 KHGX 132033 AAA
TAFGLS
TAF AMD
KGLS 132033Z 1321/1418 03014KT P6SM OVC015
     FM132100 02015KT P6SM SCT015 BKN025
     FM141400 02011KT P6SM SCT025 BKN050=



000
FTUS44 KHGX 132013 AAA
TAFCLL
TAF AMD
KCLL 132013Z 1320/1418 01010KT P6SM OVC010
      TEMPO 1320/1323 -RA
     FM132300 02008KT P6SM SCT015 BKN025
     FM141400 03005KT P6SM SCT025 BKN050=



000
FTUS44 KHGX 132013 AAA
TAFCLL
TAF AMD
KCLL 132013Z 1320/1418 01010KT P6SM OVC010
      TEMPO 1320/1323 -RA
     FM132300 02008KT P6SM SCT015 BKN025
     FM141400 03005KT P6SM SCT025 BKN050=



000
FTUS44 KHGX 131904 AAB
TAFLBX
TAF AMD
KLBX 131904Z 1319/1418 04011KT P6SM SCT012 BKN023 OVC045
      TEMPO 1319/1321 -RA
     FM141400 01005KT P6SM SCT025 BKN050=



000
FTUS44 KHGX 131806 AAA
TAFLBX
TAF AMD
KLBX 131806Z 1318/1418 02012KT P6SM VCSH BKN007 OVC015
      TEMPO 1318/1319 2SM TSRA BR OVC007CB
     FM132100 02010KT P6SM SCT015 BKN025
     FM141400 01005KT P6SM SCT025 BKN050=



000
FTUS44 KHGX 131806 AAA
TAFLBX
TAF AMD
KLBX 131806Z 1318/1418 02012KT P6SM VCSH BKN007 OVC015
      TEMPO 1318/1319 2SM TSRA BR OVC007CB
     FM132100 02010KT P6SM SCT015 BKN025
     FM141400 01005KT P6SM SCT025 BKN050=



000
FTUS44 KHGX 131726
TAFIAH
TAF
KIAH 131726Z 1318/1424 03010KT P6SM OVC016
     FM132100 01010KT P6SM SCT015 BKN025
     FM141400 03006KT P6SM SCT025 BKN050
     FM141800 04007KT P6SM SCT100=



000
FTUS44 KHGX 131726
TAFGLS
TAF
KGLS 131726Z 1318/1418 02016KT P6SM BKN008 OVC015
     FM132100 02015KT P6SM SCT015 BKN025
     FM141400 02011KT P6SM SCT025 BKN050=



000
FTUS44 KHGX 131726
TAFCLL
TAF
KCLL 131726Z 1318/1418 02011KT P6SM SCT008 OVC013
      TEMPO 1318/1320 -RA BKN008
     FM132100 02008KT P6SM SCT015 BKN025
     FM141400 03005KT P6SM SCT025 BKN050=



000
FTUS44 KHGX 131726
TAFUTS
TAF
KUTS 131726Z 1318/1418 01005KT P6SM OVC015
     FM132100 01005KT P6SM SCT015 BKN025
     FM141400 36003KT P6SM SCT025 BKN050=



000
FTUS44 KHGX 131726
TAFLBX
TAF
KLBX 131726Z 1318/1418 02013KT P6SM BKN006 OVC015
     FM132100 02010KT P6SM SCT015 BKN025
     FM141400 01005KT P6SM SCT025 BKN050=



000
FTUS44 KHGX 131726
TAFHOU
TAF
KHOU 131726Z 1318/1418 03012KT P6SM OVC015
     FM132100 02009KT P6SM SCT015 BKN025
     FM141400 03007KT P6SM SCT025 BKN050=



000
FTUS44 KHGX 131726
TAFSGR
TAF
KSGR 131726Z 1318/1418 02012KT P6SM BKN006 OVC016
     FM132100 02008KT P6SM SCT015 BKN025
     FM141400 01005KT P6SM SCT025 BKN050=



000
FTUS44 KHGX 131726
TAFCXO
TAF
KCXO 131726Z 1318/1418 01008KT P6SM BKN008 OVC015
     FM132100 36007KT P6SM SCT015 BKN025
      TEMPO 1409/1413 5SM BR
     FM141400 35005KT P6SM SCT025 BKN050=



000
FTUS44 KHGX 131726
TAFCXO
TAF
KCXO 131726Z 1318/1418 01008KT P6SM BKN008 OVC015
     FM132100 36007KT P6SM SCT015 BKN025
      TEMPO 1409/1413 5SM BR
     FM141400 35005KT P6SM SCT025 BKN050=



000
FTUS44 KHGX 131726
TAFCLL
TAF
KCLL 131726Z 1318/1418 02011KT P6SM SCT008 OVC013
      TEMPO 1318/1320 -RA BKN008
     FM132100 02008KT P6SM SCT015 BKN025
     FM141400 03005KT P6SM SCT025 BKN050=



000
FTUS44 KHGX 131726
TAFIAH
TAF
KIAH 131726Z 1318/1424 03010KT P6SM OVC016
     FM132100 01010KT P6SM SCT015 BKN025
     FM141400 03006KT P6SM SCT025 BKN050
     FM141800 04007KT P6SM SCT100=



000
FTUS44 KHGX 131726
TAFGLS
TAF
KGLS 131726Z 1318/1418 02016KT P6SM BKN008 OVC015
     FM132100 02015KT P6SM SCT015 BKN025
     FM141400 02011KT P6SM SCT025 BKN050=



000
FTUS44 KHGX 131726
TAFHOU
TAF
KHOU 131726Z 1318/1418 03012KT P6SM OVC015
     FM132100 02009KT P6SM SCT015 BKN025
     FM141400 03007KT P6SM SCT025 BKN050=



000
FTUS44 KHGX 131726
TAFUTS
TAF
KUTS 131726Z 1318/1418 01005KT P6SM OVC015
     FM132100 01005KT P6SM SCT015 BKN025
     FM141400 36003KT P6SM SCT025 BKN050=



000
FTUS44 KHGX 131726
TAFSGR
TAF
KSGR 131726Z 1318/1418 02012KT P6SM BKN006 OVC016
     FM132100 02008KT P6SM SCT015 BKN025
     FM141400 01005KT P6SM SCT025 BKN050=



000
FTUS44 KHGX 131726
TAFLBX
TAF
KLBX 131726Z 1318/1418 02013KT P6SM BKN006 OVC015
     FM132100 02010KT P6SM SCT015 BKN025
     FM141400 01005KT P6SM SCT025 BKN050=



000
FTUS44 KHGX 131604 AAB
TAFIAH
TAF AMD
KIAH 131604Z 1316/1418 02013KT P6SM OVC015
     FM132000 01011KT P6SM BKN025
     FM140000 03006KT P6SM BKN050
     FM140600 03004KT P6SM SCT250=



000
FTUS44 KHGX 131604 AAB
TAFIAH
TAF AMD
KIAH 131604Z 1316/1418 02013KT P6SM OVC015
     FM132000 01011KT P6SM BKN025
     FM140000 03006KT P6SM BKN050
     FM140600 03004KT P6SM SCT250=



000
FTUS44 KHGX 131508 AAB
TAFHOU
TAF AMD
KHOU 131508Z 1315/1412 02011KT P6SM OVC007
     FM131800 36013KT P6SM BKN025
     FM140000 03006KT P6SM BKN050=



000
FTUS44 KHGX 131508 AAB
TAFHOU
TAF AMD
KHOU 131508Z 1315/1412 02011KT P6SM OVC007
     FM131800 36013KT P6SM BKN025
     FM140000 03006KT P6SM BKN050=



000
FTUS44 KHGX 131507 AAA
TAFIAH
TAF AMD
KIAH 131507Z 1315/1418 02013KT P6SM OVC009
     FM131800 36015KT P6SM BKN015
     FM132000 01011KT P6SM BKN025
     FM140000 03006KT P6SM BKN050
     FM140600 03004KT P6SM SCT250=



000
FTUS44 KHGX 131507 AAA
TAFIAH
TAF AMD
KIAH 131507Z 1315/1418 02013KT P6SM OVC009
     FM131800 36015KT P6SM BKN015
     FM132000 01011KT P6SM BKN025
     FM140000 03006KT P6SM BKN050
     FM140600 03004KT P6SM SCT250=



000
FTUS44 KHGX 131400 AAB
TAFLBX
TAF AMD
KLBX 131400Z 1314/1412 03010KT P6SM FEW015 SCT025 BKN060
      TEMPO 1314/1316 6SM -RA BR BKN010
     FM131600 02011KT P6SM BKN025
     FM131800 36015KT P6SM BKN030
     FM140300 VRB04KT P6SM BKN050=



000
FTUS44 KHGX 131400 AAB
TAFLBX
TAF AMD
KLBX 131400Z 1314/1412 03010KT P6SM FEW015 SCT025 BKN060
      TEMPO 1314/1316 6SM -RA BR BKN010
     FM131600 02011KT P6SM BKN025
     FM131800 36015KT P6SM BKN030
     FM140300 VRB04KT P6SM BKN050=



000
FTUS44 KHGX 131358 AAA
TAFSGR
TAF AMD
KSGR 131358Z 1314/1412 02012KT 4SM BR BKN006 OVC014
      TEMPO 1314/1316 2SM -RA BR OVC006
     FM131600 02011KT P6SM BKN025
     FM131800 36015KT P6SM BKN030
     FM140100 02006KT P6SM BKN050=



000
FTUS44 KHGX 131358 AAA
TAFSGR
TAF AMD
KSGR 131358Z 1314/1412 02012KT 4SM BR BKN006 OVC014
      TEMPO 1314/1316 2SM -RA BR OVC006
     FM131600 02011KT P6SM BKN025
     FM131800 36015KT P6SM BKN030
     FM140100 02006KT P6SM BKN050=



000
FTUS44 KHGX 131357 AAA
TAFHOU
TAF AMD
KHOU 131357Z 1314/1412 02011KT P6SM BKN007 OVC012
      TEMPO 1314/1315 3SM -RA OVC006
     FM131500 02011KT P6SM BKN025
     FM131700 36015KT P6SM BKN030
     FM140000 03006KT P6SM BKN050=



000
FTUS44 KHGX 131357 AAA
TAFHOU
TAF AMD
KHOU 131357Z 1314/1412 02011KT P6SM BKN007 OVC012
      TEMPO 1314/1315 3SM -RA OVC006
     FM131500 02011KT P6SM BKN025
     FM131700 36015KT P6SM BKN030
     FM140000 03006KT P6SM BKN050=



000
FTUS44 KHGX 131344 AAA
TAFCLL
TAF AMD
KCLL 131344Z 1314/1412 36011KT 6SM BR OVC006
      TEMPO 1314/1315 2SM -RA
     FM131500 36015KT P6SM BKN010 OVC020
     FM131800 01012KT P6SM OVC025
     FM140000 02007KT P6SM BKN050=



000
FTUS44 KHGX 131344 AAA
TAFCLL
TAF AMD
KCLL 131344Z 1314/1412 36011KT 6SM BR OVC006
      TEMPO 1314/1315 2SM -RA
     FM131500 36015KT P6SM BKN010 OVC020
     FM131800 01012KT P6SM OVC025
     FM140000 02007KT P6SM BKN050=



000
FTUS44 KHGX 131217 AAA
TAFLBX
TAF AMD
KLBX 131217Z 1312/1412 03008KT P6SM VCSH FEW015 BKN110
      TEMPO 1312/1314 SHRA BKN015
     FM131600 02010KT P6SM BKN025
     FM131800 36015KT P6SM BKN030
     FM140300 VRB04KT P6SM BKN050=



000
FTUS44 KHGX 131217 AAA
TAFLBX
TAF AMD
KLBX 131217Z 1312/1412 03008KT P6SM VCSH FEW015 BKN110
      TEMPO 1312/1314 SHRA BKN015
     FM131600 02010KT P6SM BKN025
     FM131800 36015KT P6SM BKN030
     FM140300 VRB04KT P6SM BKN050=



000
FTUS44 KHGX 131138
TAFLBX
TAF
KLBX 131138Z 1312/1412 03007KT P6SM VCSH OVC012
      TEMPO 1312/1314 SHRA BKN007
     FM131600 02010KT P6SM BKN025
     FM131800 36015KT P6SM BKN030
     FM140300 VRB04KT P6SM BKN050=



000
FTUS44 KHGX 131138
TAFHOU
TAF
KHOU 131138Z 1312/1412 04007KT P6SM SCT008 BKN023 BKN200
     FM131400 02010KT P6SM BKN025
     FM131700 36015KT P6SM BKN030
     FM140000 03006KT P6SM BKN050=



000
FTUS44 KHGX 131138
TAFGLS
TAF
KGLS 131138Z 1312/1412 03013KT P6SM VCSH BKN011 OVC060
     FM131700 02012KT P6SM BKN020
     FM131900 36015KT P6SM BKN030
     FM140300 03010KT P6SM BKN050=



000
FTUS44 KHGX 131138
TAFSGR
TAF
KSGR 131138Z 1312/1412 02009KT 5SM BR BKN006 OVC014
     FM131600 02010KT P6SM BKN025
     FM131800 36015KT P6SM BKN030
     FM140100 02006KT P6SM BKN050=



000
FTUS44 KHGX 131138
TAFCXO
TAF
KCXO 131138Z 1312/1412 01009KT 4SM BR OVC005
     FM131500 36014KT P6SM BKN010
     FM132000 01010KT P6SM BKN025
     FM140000 01005KT P6SM BKN050
     FM140800 VRB02KT 6SM BR SCT250=



000
FTUS44 KHGX 131138
TAFLBX
TAF
KLBX 131138Z 1312/1412 03007KT P6SM VCSH OVC012
      TEMPO 1312/1314 SHRA BKN007
     FM131600 02010KT P6SM BKN025
     FM131800 36015KT P6SM BKN030
     FM140300 VRB04KT P6SM BKN050=



000
FTUS44 KHGX 131138
TAFCXO
TAF
KCXO 131138Z 1312/1412 01009KT 4SM BR OVC005
     FM131500 36014KT P6SM BKN010
     FM132000 01010KT P6SM BKN025
     FM140000 01005KT P6SM BKN050
     FM140800 VRB02KT 6SM BR SCT250=



000
FTUS44 KHGX 131138
TAFIAH
TAF
KIAH 131138Z 1312/1418 02009KT P6SM OVC006
     FM131700 36015KT P6SM BKN015
     FM132000 01011KT P6SM BKN025
     FM140000 03006KT P6SM BKN050
     FM140600 03004KT P6SM SCT250=



000
FTUS44 KHGX 131138
TAFUTS
TAF
KUTS 131138Z 1312/1412 VRB03KT P6SM OVC004
     FM131500 36015KT P6SM BKN010 OVC020
     FM131900 35012KT P6SM BKN025
     FM140000 01004KT P6SM BKN050=



000
FTUS44 KHGX 131138
TAFCLL
TAF
KCLL 131138Z 1312/1412 35015KT 5SM BR OVC006
     FM131500 36015KT P6SM BKN010 OVC020
     FM131800 01012KT P6SM OVC025
     FM140000 02007KT P6SM BKN050=



000
FTUS44 KHGX 131138
TAFSGR
TAF
KSGR 131138Z 1312/1412 02009KT 5SM BR BKN006 OVC014
     FM131600 02010KT P6SM BKN025
     FM131800 36015KT P6SM BKN030
     FM140100 02006KT P6SM BKN050=



000
FTUS44 KHGX 131138
TAFGLS
TAF
KGLS 131138Z 1312/1412 03013KT P6SM VCSH BKN011 OVC060
     FM131700 02012KT P6SM BKN020
     FM131900 36015KT P6SM BKN030
     FM140300 03010KT P6SM BKN050=



000
FTUS44 KHGX 131138
TAFCLL
TAF
KCLL 131138Z 1312/1412 35015KT 5SM BR OVC006
     FM131500 36015KT P6SM BKN010 OVC020
     FM131800 01012KT P6SM OVC025
     FM140000 02007KT P6SM BKN050=



000
FTUS44 KHGX 131138
TAFUTS
TAF
KUTS 131138Z 1312/1412 VRB03KT P6SM OVC004
     FM131500 36015KT P6SM BKN010 OVC020
     FM131900 35012KT P6SM BKN025
     FM140000 01004KT P6SM BKN050=



000
FTUS44 KHGX 131138
TAFIAH
TAF
KIAH 131138Z 1312/1418 02009KT P6SM OVC006
     FM131700 36015KT P6SM BKN015
     FM132000 01011KT P6SM BKN025
     FM140000 03006KT P6SM BKN050
     FM140600 03004KT P6SM SCT250=



000
FTUS44 KHGX 131138
TAFHOU
TAF
KHOU 131138Z 1312/1412 04007KT P6SM SCT008 BKN023 BKN200
     FM131400 02010KT P6SM BKN025
     FM131700 36015KT P6SM BKN030
     FM140000 03006KT P6SM BKN050=



000
FTUS44 KHGX 130909 AAA
TAFIAH
TAF AMD
KIAH 130909Z 1309/1412 36010KT P6SM VCSH OVC010
     FM131500 02012KT P6SM BKN020
     FM140000 03006KT P6SM BKN050=



000
FTUS44 KHGX 130909 AAA
TAFIAH
TAF AMD
KIAH 130909Z 1309/1412 36010KT P6SM VCSH OVC010
     FM131500 02012KT P6SM BKN020
     FM140000 03006KT P6SM BKN050=



000
FTUS44 KHGX 130909 AAA
TAFHOU
TAF AMD
KHOU 130909Z 1309/1406 03010KT P6SM VCSH BKN008 OVC029
     FM131400 02010KT P6SM BKN015 OVC020
     FM131600 02012KT P6SM BKN020
     FM140000 03006KT P6SM BKN050=



000
FTUS44 KHGX 130909 AAA
TAFHOU
TAF AMD
KHOU 130909Z 1309/1406 03010KT P6SM VCSH BKN008 OVC029
     FM131400 02010KT P6SM BKN015 OVC020
     FM131600 02012KT P6SM BKN020
     FM140000 03006KT P6SM BKN050=



    US Dept of Commerce
    National Oceanic and Atmospheric Administration
    National Weather Service
    1325 East West Highway
    Silver Spring, MD 20910
    Page Author: NWS Internet Services Team
Disclaimer
Information Quality
Credits
Glossary
Privacy Policy
Freedom of Information Act (FOIA)
About Us
Career Opportunities